createdAt,value
2019-02-05T00:00:59.803Z,79.11
2019-02-05T00:04:44.510Z,78.31
2019-02-05T00:12:19.711Z,78.13
2019-02-05T00:19:54.758Z,79.14
2019-02-05T00:23:32.717Z,79.93
2019-02-05T00:31:07.303Z,80.44
2019-02-05T00:34:51.989Z,80.14
2019-02-05T00:38:55.922Z,80.15
2019-02-05T00:42:40.519Z,79.77
2019-02-05T00:46:25.103Z,79.79
2019-02-05T00:50:10.681Z,79.77
2019-02-05T00:53:55.307Z,79.98
2019-02-05T00:57:39.948Z,79.46
2019-02-05T01:01:24.535Z,79.64
2019-02-05T01:05:09.215Z,80.13
2019-02-05T01:16:54.669Z,79.80
2019-02-05T01:20:39.289Z,80.17
2019-02-05T01:28:14.080Z,81.04
2019-02-05T01:31:59.055Z,80.10
2019-02-05T01:35:43.757Z,79.99
2019-02-05T01:39:28.384Z,80.33
2019-02-05T01:43:13.037Z,81.00
2019-02-05T01:46:57.613Z,80.75
2019-02-05T01:50:42.255Z,81.25
2019-02-05T01:54:26.891Z,80.72
2019-02-05T01:58:11.496Z,81.38
2019-02-05T02:01:56.071Z,81.53
2019-02-05T02:05:40.644Z,81.73
2019-02-05T02:09:25.296Z,81.83
2019-02-05T02:13:10.200Z,81.77
2019-02-05T02:16:54.825Z,81.99
2019-02-05T02:20:39.433Z,82.33
2019-02-05T02:24:16.507Z,82.14
2019-02-05T02:28:01.118Z,82.39
2019-02-05T02:31:45.741Z,83.80
2019-02-05T02:35:30.370Z,83.86
2019-02-05T02:39:14.979Z,83.18
2019-02-05T02:42:59.612Z,82.49
2019-02-05T02:46:44.192Z,82.78
2019-02-05T02:54:18.714Z,82.76
2019-02-05T02:58:03.310Z,82.10
2019-02-05T03:01:47.946Z,82.55
2019-02-05T03:05:34.289Z,82.44
2019-02-05T03:13:08.671Z,82.74
2019-02-05T03:16:53.305Z,82.74
2019-02-05T03:20:39.669Z,82.40
2019-02-05T03:24:16.827Z,83.19
2019-02-05T03:28:01.463Z,83.60
2019-02-05T03:31:46.069Z,82.40
2019-02-05T03:35:30.681Z,82.31
2019-02-05T03:43:18.705Z,82.73
2019-02-05T03:46:53.244Z,82.87
2019-02-05T03:50:58.839Z,82.34
2019-02-05T03:55:21.618Z,82.24
2019-02-05T03:59:44.391Z,83.34
2019-02-05T04:04:07.513Z,82.24
2019-02-05T04:08:30.273Z,82.49
2019-02-05T04:12:41.258Z,82.96
2019-02-05T04:17:04.014Z,83.16
2019-02-05T04:21:27.070Z,82.81
2019-02-05T04:25:23.323Z,82.89
2019-02-05T04:29:46.094Z,83.26
2019-02-05T04:34:08.827Z,83.12
2019-02-05T04:38:31.583Z,82.57
2019-02-05T04:42:54.372Z,82.82
2019-02-05T04:47:17.193Z,83.10
2019-02-05T04:51:35.164Z,82.88
2019-02-05T04:55:42.572Z,83.13
2019-02-05T05:00:05.635Z,82.77
2019-02-05T05:04:28.396Z,82.34
2019-02-05T05:08:51.134Z,82.87
2019-02-05T05:12:35.746Z,82.59
2019-02-05T05:16:20.373Z,82.52
2019-02-05T05:20:06.768Z,82.67
2019-02-05T05:23:45.175Z,83.07
2019-02-05T05:27:30.240Z,82.94
2019-02-05T05:31:14.860Z,82.16
2019-02-05T05:34:59.509Z,82.38
2019-02-05T05:38:44.132Z,81.99
2019-02-05T05:42:28.759Z,83.29
2019-02-05T05:46:13.382Z,82.84
2019-02-05T05:49:58.357Z,83.49
2019-02-05T05:53:23.911Z,82.48
2019-02-05T05:57:08.504Z,83.58
2019-02-05T06:00:53.145Z,84.67
2019-02-05T06:04:37.858Z,83.67
2019-02-05T06:12:13.216Z,83.13
2019-02-05T06:15:57.898Z,84.65
2019-02-05T06:19:42.888Z,83.97
2019-02-05T06:23:19.723Z,83.91
2019-02-05T06:27:04.439Z,83.77
2019-02-05T06:30:49.188Z,83.26
2019-02-05T06:34:34.371Z,82.97
2019-02-05T06:38:19.074Z,82.31
2019-02-05T06:42:03.687Z,84.58
2019-02-05T06:45:48.271Z,83.86
2019-02-05T06:49:33.211Z,82.83
2019-02-05T06:53:17.838Z,84.62
2019-02-05T06:57:21.874Z,83.69
2019-02-05T07:01:08.032Z,83.26
2019-02-05T07:04:53.086Z,82.93
2019-02-05T07:08:37.736Z,82.77
2019-02-05T07:12:22.735Z,83.56
2019-02-05T07:16:07.627Z,82.77
2019-02-05T07:19:52.303Z,81.96
2019-02-05T07:23:29.410Z,82.40
2019-02-05T07:31:04.410Z,82.13
2019-02-05T07:34:49.051Z,81.79
2019-02-05T07:38:33.784Z,81.19
2019-02-05T07:41:59.384Z,80.96
2019-02-05T07:45:44.111Z,83.25
2019-02-05T07:49:28.725Z,81.90
2019-02-05T07:57:24.917Z,81.33
2019-02-05T08:08:50.388Z,82.17
2019-02-05T08:12:35.024Z,81.10
2019-02-05T08:19:51.276Z,80.60
2019-02-05T08:23:28.161Z,80.47
2019-02-05T08:27:12.798Z,80.42
2019-02-05T08:34:47.828Z,80.48
2019-02-05T08:38:34.193Z,80.99
2019-02-05T08:46:08.772Z,79.37
2019-02-05T08:49:53.488Z,79.41
2019-02-05T08:53:58.643Z,79.48
2019-02-05T08:57:43.656Z,79.29
2019-02-05T09:01:28.622Z,79.02
2019-02-05T09:05:15.400Z,77.63
2019-02-05T09:09:18.864Z,77.87
2019-02-05T09:16:53.786Z,76.89
2019-02-05T09:20:30.906Z,76.53
2019-02-05T09:24:15.607Z,76.73
2019-02-05T09:43:21.544Z,78.18
2019-02-05T09:47:06.169Z,77.34
2019-02-05T09:50:51.439Z,77.23
2019-02-05T09:58:39.667Z,77.38
2019-02-05T10:02:24.316Z,78.32
2019-02-05T10:06:08.945Z,76.67
2019-02-05T10:09:53.595Z,77.84
2019-02-05T10:13:38.558Z,78.15
2019-02-05T10:17:23.272Z,77.03
2019-02-05T10:21:00.443Z,76.61
2019-02-05T10:24:45.090Z,75.93
2019-02-05T10:28:31.459Z,77.17
2019-02-05T10:36:38.431Z,75.98
2019-02-05T10:40:41.906Z,77.04
2019-02-05T10:44:28.066Z,76.51
2019-02-05T10:48:12.976Z,76.07
2019-02-05T10:51:57.722Z,75.95
2019-02-05T10:55:42.454Z,75.59
2019-02-05T10:59:08.109Z,75.62
2019-02-05T11:02:52.694Z,75.63
2019-02-05T11:06:20.153Z,74.11
2019-02-05T11:10:05.589Z,73.88
2019-02-05T11:13:50.232Z,73.83
2019-02-05T11:17:34.847Z,73.69
2019-02-05T11:21:12.271Z,72.24
2019-02-05T11:24:56.959Z,74.30
2019-02-05T11:28:43.606Z,73.39
2019-02-05T11:32:28.226Z,74.97
2019-02-05T11:36:12.957Z,73.98
2019-02-05T11:39:57.682Z,74.48
2019-02-05T11:47:33.830Z,74.73
2019-02-05T11:51:18.471Z,74.32
2019-02-05T11:55:03.385Z,74.82
2019-02-05T11:58:49.737Z,73.68
2019-02-05T12:02:34.458Z,73.88
2019-02-05T12:10:29.890Z,75.07
2019-02-05T12:21:47.968Z,73.24
2019-02-05T12:25:35.320Z,74.05
2019-02-05T12:29:20.038Z,74.19
2019-02-05T12:33:23.767Z,73.76
2019-02-05T12:37:08.425Z,74.58
2019-02-05T12:40:53.389Z,76.13
2019-02-05T12:49:00.371Z,74.83
2019-02-05T12:53:04.171Z,73.68
2019-02-05T12:56:48.913Z,73.81
2019-02-05T13:00:36.072Z,74.54
2019-02-05T13:04:20.973Z,73.34
2019-02-05T13:08:26.285Z,73.62
2019-02-05T13:12:10.880Z,73.90
2019-02-05T13:19:59.123Z,74.33
2019-02-05T13:23:36.433Z,73.90
2019-02-05T13:35:01.886Z,71.54
2019-02-05T13:38:46.559Z,74.07
2019-02-05T13:42:32.918Z,72.81
2019-02-05T13:50:12.684Z,73.93
2019-02-05T13:53:57.594Z,72.55
2019-02-05T13:57:42.510Z,72.00
2019-02-05T14:01:27.322Z,72.33
2019-02-05T14:09:10.154Z,71.45
2019-02-05T14:12:49.096Z,71.83
2019-02-05T14:16:33.747Z,71.80
2019-02-05T14:20:18.514Z,71.57
2019-02-05T14:23:56.008Z,71.31
2019-02-05T14:27:40.789Z,72.99
2019-02-05T14:35:29.290Z,72.24
2019-02-05T14:39:13.982Z,72.30
2019-02-05T14:42:58.658Z,73.01
2019-02-05T14:46:43.349Z,73.61
2019-02-05T14:50:48.564Z,71.93
2019-02-05T14:54:33.219Z,72.65
2019-02-05T14:58:18.491Z,73.57
2019-02-05T15:02:03.175Z,72.40
2019-02-05T15:05:48.353Z,71.92
2019-02-05T15:17:26.798Z,71.40
2019-02-05T15:21:05.625Z,70.56
2019-02-05T15:28:35.467Z,70.67
2019-02-05T15:32:39.239Z,70.64
2019-02-05T15:36:42.739Z,70.62
2019-02-05T15:44:30.897Z,70.24
2019-02-05T15:55:56.014Z,70.53
2019-02-05T15:59:40.645Z,70.55
2019-02-05T16:11:25.890Z,71.31
2019-02-05T16:15:11.508Z,70.68
2019-02-05T16:18:56.189Z,71.34
2019-02-05T16:22:33.324Z,70.58
2019-02-05T16:26:17.970Z,71.10
2019-02-05T16:30:03.015Z,71.53
2019-02-05T16:37:38.382Z,70.98
2019-02-05T16:45:27.629Z,71.49
2019-02-05T16:49:12.393Z,71.79
2019-02-05T16:52:57.210Z,71.91
2019-02-05T17:00:45.445Z,71.56
2019-02-05T17:04:30.118Z,70.40
2019-02-05T17:08:16.525Z,71.03
2019-02-05T17:12:01.189Z,70.91
2019-02-05T17:15:45.983Z,71.17
2019-02-05T17:19:51.267Z,72.08
2019-02-05T17:23:31.522Z,71.70
2019-02-05T17:31:06.496Z,70.86
2019-02-05T17:34:51.271Z,72.06
2019-02-05T17:42:39.755Z,72.19
2019-02-05T17:46:24.901Z,72.43
2019-02-05T17:50:09.911Z,71.90
2019-02-05T17:53:55.001Z,71.44
2019-02-05T17:57:39.664Z,70.99
2019-02-05T18:01:25.064Z,71.81
2019-02-05T18:09:35.468Z,71.53
2019-02-05T18:21:06.688Z,72.43
2019-02-05T18:28:06.464Z,71.73
2019-02-05T18:31:32.102Z,72.61
2019-02-05T18:34:58.169Z,72.33
2019-02-05T18:38:23.983Z,72.41
2019-02-05T18:41:49.620Z,71.71
2019-02-05T18:45:16.584Z,72.28
2019-02-05T18:48:42.218Z,72.24
2019-02-05T18:52:08.535Z,71.86
2019-02-05T18:55:36.548Z,72.47
2019-02-05T18:59:03.546Z,72.74
2019-02-05T19:02:29.304Z,72.83
2019-02-05T19:05:54.929Z,73.18
2019-02-05T19:09:20.587Z,73.59
2019-02-05T19:12:46.224Z,73.59
2019-02-05T19:16:11.975Z,74.09
2019-02-05T19:19:37.503Z,73.81
2019-02-05T19:23:04.682Z,73.73
2019-02-05T19:26:37.860Z,73.75
2019-02-05T19:30:03.799Z,73.59
2019-02-05T19:33:35.943Z,73.20
2019-02-05T19:37:08.404Z,74.40
2019-02-05T19:40:34.132Z,74.24
2019-02-05T19:44:01.371Z,74.77
2019-02-05T19:47:32.207Z,75.39
2019-02-05T19:50:59.507Z,76.00
2019-02-05T19:54:27.743Z,74.28
2019-02-05T19:57:56.121Z,75.17
2019-02-05T20:01:22.472Z,75.07
2019-02-05T20:04:49.305Z,74.76
2019-02-05T20:08:15.775Z,74.75
2019-02-05T20:11:41.398Z,74.76
2019-02-05T20:15:10.167Z,74.82
2019-02-05T20:18:38.703Z,75.11
2019-02-05T20:22:04.475Z,75.36
2019-02-05T20:25:33.614Z,75.37
2019-02-05T20:28:59.321Z,76.36
2019-02-05T20:32:27.939Z,75.86
2019-02-05T20:35:52.375Z,75.71
2019-02-05T20:39:22.187Z,76.09
2019-02-05T20:42:48.663Z,76.16
2019-02-05T20:46:14.362Z,76.13
2019-02-05T20:49:40.829Z,76.57
2019-02-05T20:53:13.932Z,77.08
2019-02-05T20:56:37.868Z,76.79
2019-02-05T21:00:03.669Z,76.57
2019-02-05T21:03:29.334Z,76.28
2019-02-05T21:06:55.284Z,76.28
2019-02-05T21:10:23.262Z,75.88
2019-02-05T21:13:48.983Z,75.68
2019-02-05T21:17:15.111Z,76.02
2019-02-05T21:20:40.865Z,76.18
2019-02-05T21:24:06.688Z,75.67
2019-02-05T21:27:32.317Z,75.99
2019-02-05T21:30:58.361Z,77.15
2019-02-05T21:34:24.045Z,76.61
2019-02-05T21:37:49.996Z,77.24
2019-02-05T21:41:16.078Z,77.12
2019-02-05T21:45:08.321Z,76.85
2019-02-05T21:48:53.242Z,76.72
2019-02-05T21:52:37.910Z,76.48
2019-02-05T21:56:41.401Z,75.90
2019-02-05T22:00:20.555Z,76.00
2019-02-05T22:04:05.570Z,77.16
2019-02-05T22:11:40.990Z,77.35
2019-02-05T22:15:26.407Z,77.37
2019-02-05T22:19:11.151Z,77.47
2019-02-05T22:22:56.246Z,76.91
2019-02-05T22:30:33.736Z,77.62
2019-02-05T22:34:18.353Z,77.39
2019-02-05T22:38:03.024Z,77.64
2019-02-05T22:41:40.454Z,77.58
2019-02-05T22:46:05.093Z,77.13
2019-02-05T22:58:02.711Z,77.62
2019-02-05T23:02:28.510Z,77.51
2019-02-05T23:06:51.467Z,78.33
2019-02-05T23:11:03.481Z,77.53
2019-02-05T23:14:28.673Z,77.35
2019-02-05T23:17:54.374Z,77.34
2019-02-05T23:21:19.939Z,77.29
2019-02-05T23:24:45.625Z,77.54
2019-02-05T23:28:11.225Z,77.57
2019-02-05T23:31:36.868Z,76.69
2019-02-05T23:35:02.923Z,77.27
2019-02-05T23:38:30.033Z,76.45
2019-02-05T23:41:56.038Z,76.33
2019-02-05T23:45:21.622Z,76.98
2019-02-05T23:48:47.232Z,76.93
2019-02-05T23:52:12.909Z,76.48
2019-02-05T23:55:38.514Z,76.62
2019-02-05T23:59:04.141Z,76.89
